sensor_id;sensor_type;location;lat;lon;timestamp;pressure;altitude;pressure_sealevel;temperature;humidity
15817;BME280;8009;50.070;8.232;2023-01-30T00:07:00;100634.53;;;1.56;68.29
15817;BME280;8009;50.070;8.232;2023-01-30T00:09:29;100643.34;;;1.89;67.59
15817;BME280;8009;50.070;8.232;2023-01-30T01:35:14;100510.41;;;2.09;71.49
15817;BME280;8009;50.070;8.232;2023-01-30T01:37:44;100515.44;;;1.90;72.13
15817;BME280;8009;50.070;8.232;2023-01-30T02:15:18;100447.44;;;2.33;71.18
15817;BME280;8009;50.070;8.232;2023-01-30T02:27:17;100446.44;;;2.11;72.97
15817;BME280;8009;50.070;8.232;2023-01-30T02:33:07;100448.00;;;2.16;72.19
15817;BME280;8009;50.070;8.232;2023-01-30T02:35:46;100433.16;;;2.59;71.76
15817;BME280;8009;50.070;8.232;2023-01-30T02:38:30;100437.31;;;2.43;70.81
15817;BME280;8009;50.070;8.232;2023-01-30T02:41:11;100432.03;;;1.90;72.61
15817;BME280;8009;50.070;8.232;2023-01-30T02:43:45;100435.44;;;2.20;71.66
15817;BME280;8009;50.070;8.232;2023-01-30T02:46:21;100437.66;;;2.34;71.42
15817;BME280;8009;50.070;8.232;2023-01-30T02:48:58;100454.88;;;2.24;71.52
15817;BME280;8009;50.070;8.232;2023-01-30T02:51:29;100452.53;;;1.88;72.68
15817;BME280;8009;50.070;8.232;2023-01-30T02:53:59;100448.22;;;2.37;71.67
15817;BME280;8009;50.070;8.232;2023-01-30T02:56:45;100443.78;;;2.36;71.46
15817;BME280;8009;50.070;8.232;2023-01-30T02:59:18;100441.44;;;2.77;70.27
15817;BME280;8009;50.070;8.232;2023-01-30T03:02:07;100441.78;;;2.67;71.08
15817;BME280;8009;50.070;8.232;2023-01-30T03:04:55;100435.81;;;2.61;70.79
15817;BME280;8009;50.070;8.232;2023-01-30T03:07:36;100434.28;;;2.79;70.33
15817;BME280;8009;50.070;8.232;2023-01-30T03:10:16;100448.97;;;2.65;70.65
15817;BME280;8009;50.070;8.232;2023-01-30T03:12:49;100449.78;;;2.67;70.27
15817;BME280;8009;50.070;8.232;2023-01-30T03:28:18;100409.53;;;2.50;71.10
15817;BME280;8009;50.070;8.232;2023-01-30T03:30:48;100402.50;;;2.48;70.90
15817;BME280;8009;50.070;8.232;2023-01-30T03:33:16;100406.19;;;2.43;71.38
15817;BME280;8009;50.070;8.232;2023-01-30T03:45:20;100409.63;;;2.47;71.25
15817;BME280;8009;50.070;8.232;2023-01-30T04:01:02;100395.41;;;2.48;72.16
15817;BME280;8009;50.070;8.232;2023-01-30T04:51:15;100300.22;;;2.50;73.24
15817;BME280;8009;50.070;8.232;2023-01-30T04:53:59;100285.91;;;2.76;72.69
15817;BME280;8009;50.070;8.232;2023-01-30T05:09:10;100266.94;;;2.84;72.59
15817;BME280;8009;50.070;8.232;2023-01-30T05:11:39;100270.84;;;2.75;72.00
15817;BME280;8009;50.070;8.232;2023-01-30T06:26:44;100196.22;;;2.74;74.84
15817;BME280;8009;50.070;8.232;2023-01-30T06:29:12;100208.25;;;2.84;74.98
15817;BME280;8009;50.070;8.232;2023-01-30T06:31:41;100203.97;;;2.58;75.53
15817;BME280;8009;50.070;8.232;2023-01-30T06:34:10;100223.94;;;3.13;73.52
15817;BME280;8009;50.070;8.232;2023-01-30T06:36:40;100202.50;;;2.95;74.38
15817;BME280;8009;50.070;8.232;2023-01-30T06:39:08;100200.25;;;2.62;74.68
15817;BME280;8009;50.070;8.232;2023-01-30T06:41:36;100207.41;;;3.26;76.50
15817;BME280;8009;50.070;8.232;2023-01-30T06:44:07;100212.44;;;3.33;73.02
15817;BME280;8009;50.070;8.232;2023-01-30T06:46:36;100221.28;;;3.13;73.43
15817;BME280;8009;50.070;8.232;2023-01-30T06:49:05;100219.50;;;3.75;74.39
15817;BME280;8009;50.070;8.232;2023-01-30T06:51:33;100213.63;;;3.26;73.00
15817;BME280;8009;50.070;8.232;2023-01-30T06:54:02;100224.13;;;3.51;72.92
15817;BME280;8009;50.070;8.232;2023-01-30T06:56:32;100221.38;;;3.94;72.32
15817;BME280;8009;50.070;8.232;2023-01-30T06:59:01;100214.84;;;3.60;72.02
15817;BME280;8009;50.070;8.232;2023-01-30T07:01:34;100213.31;;;3.75;72.70
15817;BME280;8009;50.070;8.232;2023-01-30T07:04:03;100223.84;;;3.37;74.00
15817;BME280;8009;50.070;8.232;2023-01-30T07:06:32;100220.66;;;3.49;75.01
15817;BME280;8009;50.070;8.232;2023-01-30T07:09:02;100217.00;;;3.09;74.28
15817;BME280;8009;50.070;8.232;2023-01-30T07:11:30;100223.66;;;3.41;76.71
15817;BME280;8009;50.070;8.232;2023-01-30T07:13:58;100220.28;;;3.77;75.63
15817;BME280;8009;50.070;8.232;2023-01-30T07:16:26;100238.19;;;3.55;74.24
15817;BME280;8009;50.070;8.232;2023-01-30T07:18:59;100238.78;;;4.02;71.43
15817;BME280;8009;50.070;8.232;2023-01-30T07:21:27;100240.06;;;3.53;75.87
15817;BME280;8009;50.070;8.232;2023-01-30T07:23:55;100219.97;;;3.85;73.19
15817;BME280;8009;50.070;8.232;2023-01-30T07:26:24;100217.38;;;3.63;73.28
15817;BME280;8009;50.070;8.232;2023-01-30T07:28:54;100226.50;;;3.37;73.42
15817;BME280;8009;50.070;8.232;2023-01-30T07:31:22;100229.19;;;3.37;73.80
15817;BME280;8009;50.070;8.232;2023-01-30T07:33:50;100238.56;;;3.25;76.05
15817;BME280;8009;50.070;8.232;2023-01-30T07:36:21;100239.81;;;3.16;75.57
15817;BME280;8009;50.070;8.232;2023-01-30T07:38:49;100230.91;;;3.38;75.37
15817;BME280;8009;50.070;8.232;2023-01-30T07:41:18;100242.53;;;3.57;74.84
15817;BME280;8009;50.070;8.232;2023-01-30T07:43:47;100249.81;;;3.11;76.81
15817;BME280;8009;50.070;8.232;2023-01-30T07:46:16;100260.56;;;3.10;78.51
15817;BME280;8009;50.070;8.232;2023-01-30T07:48:46;100247.84;;;2.95;77.53
15817;BME280;8009;50.070;8.232;2023-01-30T07:51:14;100247.81;;;3.16;77.03
15817;BME280;8009;50.070;8.232;2023-01-30T07:53:48;100255.22;;;2.88;78.22
15817;BME280;8009;50.070;8.232;2023-01-30T07:56:17;100251.81;;;3.06;77.74
15817;BME280;8009;50.070;8.232;2023-01-30T07:58:48;100245.47;;;2.87;78.47
15817;BME280;8009;50.070;8.232;2023-01-30T08:01:17;100247.41;;;2.83;78.88
15817;BME280;8009;50.070;8.232;2023-01-30T08:03:45;100232.19;;;3.07;78.11
15817;BME280;8009;50.070;8.232;2023-01-30T08:06:14;100234.25;;;3.01;78.76
15817;BME280;8009;50.070;8.232;2023-01-30T08:08:45;100223.78;;;3.16;77.90
15817;BME280;8009;50.070;8.232;2023-01-30T08:11:14;100215.72;;;3.60;76.62
15817;BME280;8009;50.070;8.232;2023-01-30T08:13:42;100213.28;;;3.13;78.06
15817;BME280;8009;50.070;8.232;2023-01-30T08:16:11;100217.88;;;3.10;78.04
15817;BME280;8009;50.070;8.232;2023-01-30T08:18:42;100226.19;;;3.02;78.80
15817;BME280;8009;50.070;8.232;2023-01-30T08:21:10;100233.59;;;3.16;78.54
15817;BME280;8009;50.070;8.232;2023-01-30T08:23:38;100223.69;;;2.98;79.00
15817;BME280;8009;50.070;8.232;2023-01-30T08:26:09;100223.31;;;3.07;78.90
15817;BME280;8009;50.070;8.232;2023-01-30T08:28:38;100226.53;;;2.93;78.71
15817;BME280;8009;50.070;8.232;2023-01-30T08:31:09;100238.22;;;2.90;78.33
15817;BME280;8009;50.070;8.232;2023-01-30T08:33:37;100240.59;;;3.40;78.12
15817;BME280;8009;50.070;8.232;2023-01-30T08:36:06;100233.53;;;3.60;76.72
15817;BME280;8009;50.070;8.232;2023-01-30T08:38:35;100234.31;;;3.41;77.78
15817;BME280;8009;50.070;8.232;2023-01-30T08:41:04;100223.22;;;3.51;77.65
15817;BME280;8009;50.070;8.232;2023-01-30T08:43:36;100216.13;;;3.51;77.48
15817;BME280;8009;50.070;8.232;2023-01-30T08:46:04;100217.66;;;3.57;77.11
15817;BME280;8009;50.070;8.232;2023-01-30T08:48:33;100204.56;;;3.71;77.92
15817;BME280;8009;50.070;8.232;2023-01-30T08:51:03;100198.59;;;4.24;75.83
15817;BME280;8009;50.070;8.232;2023-01-30T08:53:32;100210.53;;;3.35;78.20
15817;BME280;8009;50.070;8.232;2023-01-30T08:56:01;100203.00;;;3.65;77.60
15817;BME280;8009;50.070;8.232;2023-01-30T08:58:29;100208.56;;;3.61;77.82
15817;BME280;8009;50.070;8.232;2023-01-30T09:01:06;100213.09;;;3.38;78.67
15817;BME280;8009;50.070;8.232;2023-01-30T09:03:34;100206.63;;;3.64;77.96
15817;BME280;8009;50.070;8.232;2023-01-30T09:06:03;100203.94;;;3.85;78.27
15817;BME280;8009;50.070;8.232;2023-01-30T09:08:32;100170.69;;;4.30;77.14
15817;BME280;8009;50.070;8.232;2023-01-30T09:11:02;100164.75;;;4.42;75.03
15817;BME280;8009;50.070;8.232;2023-01-30T09:13:31;100166.88;;;4.17;75.59
15817;BME280;8009;50.070;8.232;2023-01-30T09:16:06;100178.78;;;3.70;77.62
15817;BME280;8009;50.070;8.232;2023-01-30T09:18:37;100180.28;;;3.96;76.46
15817;BME280;8009;50.070;8.232;2023-01-30T09:21:06;100173.47;;;3.89;76.75
15817;BME280;8009;50.070;8.232;2023-01-30T09:23:34;100174.41;;;3.88;78.15
15817;BME280;8009;50.070;8.232;2023-01-30T09:26:03;100181.69;;;3.84;78.50
15817;BME280;8009;50.070;8.232;2023-01-30T09:28:32;100176.25;;;4.06;76.50
15817;BME280;8009;50.070;8.232;2023-01-30T09:31:01;100187.16;;;4.02;76.61
15817;BME280;8009;50.070;8.232;2023-01-30T09:33:32;100171.41;;;4.14;75.72
15817;BME280;8009;50.070;8.232;2023-01-30T09:36:01;100175.63;;;4.39;75.38
15817;BME280;8009;50.070;8.232;2023-01-30T09:38:29;100173.38;;;4.49;76.42
15817;BME280;8009;50.070;8.232;2023-01-30T09:41:25;100182.69;;;4.95;74.04
15817;BME280;8009;50.070;8.232;2023-01-30T09:44:19;100184.63;;;4.55;74.46
15817;BME280;8009;50.070;8.232;2023-01-30T09:46:59;100192.81;;;5.25;72.43
15817;BME280;8009;50.070;8.232;2023-01-30T09:49:43;100188.38;;;4.70;73.52
15817;BME280;8009;50.070;8.232;2023-01-30T09:52:22;100196.16;;;4.94;74.42
15817;BME280;8009;50.070;8.232;2023-01-30T09:54:59;100196.50;;;5.05;72.41
15817;BME280;8009;50.070;8.232;2023-01-30T09:57:28;100201.09;;;4.46;75.66
15817;BME280;8009;50.070;8.232;2023-01-30T09:59:59;100190.69;;;5.31;73.79
15817;BME280;8009;50.070;8.232;2023-01-30T10:02:40;100193.72;;;4.70;74.15
15817;BME280;8009;50.070;8.232;2023-01-30T10:06:03;100184.44;;;4.96;74.47
15817;BME280;8009;50.070;8.232;2023-01-30T10:09:03;100191.84;;;5.08;73.72
15817;BME280;8009;50.070;8.232;2023-01-30T10:11:53;100194.38;;;5.11;73.86
15817;BME280;8009;50.070;8.232;2023-01-30T10:14:50;100177.34;;;4.59;76.13
15817;BME280;8009;50.070;8.232;2023-01-30T10:17:30;100174.38;;;5.36;73.68
15817;BME280;8009;50.070;8.232;2023-01-30T10:20:11;100167.91;;;5.05;74.13
15817;BME280;8009;50.070;8.232;2023-01-30T10:22:51;100167.75;;;5.08;73.94
15817;BME280;8009;50.070;8.232;2023-01-30T10:25:28;100156.63;;;4.99;74.23
15817;BME280;8009;50.070;8.232;2023-01-30T10:28:03;100143.06;;;5.38;72.80
15817;BME280;8009;50.070;8.232;2023-01-30T10:30:33;100172.34;;;4.87;75.03
15817;BME280;8009;50.070;8.232;2023-01-30T10:33:04;100163.03;;;5.13;74.06
15817;BME280;8009;50.070;8.232;2023-01-30T10:35:35;100154.69;;;5.54;73.43
15817;BME280;8009;50.070;8.232;2023-01-30T10:38:11;100160.53;;;5.28;73.49
15817;BME280;8009;50.070;8.232;2023-01-30T10:40:48;100156.34;;;5.40;73.78
15817;BME280;8009;50.070;8.232;2023-01-30T10:43:23;100160.41;;;5.64;72.39
15817;BME280;8009;50.070;8.232;2023-01-30T10:46:09;100152.00;;;5.54;72.96
15817;BME280;8009;50.070;8.232;2023-01-30T10:48:49;100161.06;;;5.69;73.41
15817;BME280;8009;50.070;8.232;2023-01-30T10:51:26;100162.97;;;5.50;73.22
15817;BME280;8009;50.070;8.232;2023-01-30T10:54:02;100170.00;;;5.85;72.52
15817;BME280;8009;50.070;8.232;2023-01-30T10:56:37;100162.38;;;5.60;73.24
15817;BME280;8009;50.070;8.232;2023-01-30T10:59:20;100158.47;;;6.01;72.84
15817;BME280;8009;50.070;8.232;2023-01-30T11:01:56;100155.56;;;6.37;71.04
15817;BME280;8009;50.070;8.232;2023-01-30T11:04:30;100154.13;;;6.47;70.06
15817;BME280;8009;50.070;8.232;2023-01-30T11:07:00;100162.19;;;7.09;68.99
15817;BME280;8009;50.070;8.232;2023-01-30T11:09:43;100144.88;;;6.53;70.19
15817;BME280;8009;50.070;8.232;2023-01-30T11:12:12;100144.50;;;6.27;71.31
15817;BME280;8009;50.070;8.232;2023-01-30T11:14:54;100131.00;;;6.13;72.29
15817;BME280;8009;50.070;8.232;2023-01-30T11:17:32;100137.31;;;6.59;70.72
15817;BME280;8009;50.070;8.232;2023-01-30T11:20:06;100143.34;;;6.00;72.55
15817;BME280;8009;50.070;8.232;2023-01-30T11:22:36;100151.31;;;6.17;72.42
15817;BME280;8009;50.070;8.232;2023-01-30T11:25:14;100141.72;;;6.45;71.89
15817;BME280;8009;50.070;8.232;2023-01-30T11:27:50;100145.03;;;6.18;72.09
15817;BME280;8009;50.070;8.232;2023-01-30T11:30:20;100141.44;;;6.02;73.20
15817;BME280;8009;50.070;8.232;2023-01-30T11:32:49;100146.53;;;6.06;72.62
15817;BME280;8009;50.070;8.232;2023-01-30T11:35:22;100155.00;;;5.99;72.19
15817;BME280;8009;50.070;8.232;2023-01-30T11:37:52;100161.28;;;6.31;71.79
15817;BME280;8009;50.070;8.232;2023-01-30T11:40:27;100161.72;;;6.39;71.08
15817;BME280;8009;50.070;8.232;2023-01-30T11:43:02;100158.94;;;6.25;71.71
15817;BME280;8009;50.070;8.232;2023-01-30T11:45:36;100161.41;;;6.45;71.03
15817;BME280;8009;50.070;8.232;2023-01-30T11:48:12;100156.88;;;6.62;70.96
15817;BME280;8009;50.070;8.232;2023-01-30T11:50:45;100158.44;;;6.66;70.67
15817;BME280;8009;50.070;8.232;2023-01-30T11:53:28;100164.69;;;6.34;71.87
15817;BME280;8009;50.070;8.232;2023-01-30T11:56:21;100173.31;;;6.24;71.87
15817;BME280;8009;50.070;8.232;2023-01-30T11:58:55;100162.94;;;6.49;70.62
15817;BME280;8009;50.070;8.232;2023-01-30T12:09:55;100141.06;;;6.41;71.22
15817;BME280;8009;50.070;8.232;2023-01-30T12:12:32;100142.09;;;6.54;69.71
15817;BME280;8009;50.070;8.232;2023-01-30T12:15:22;100138.44;;;6.87;69.10
15817;BME280;8009;50.070;8.232;2023-01-30T12:17:58;100134.19;;;6.67;68.91
15817;BME280;8009;50.070;8.232;2023-01-30T12:20:44;100115.75;;;6.77;68.97
15817;BME280;8009;50.070;8.232;2023-01-30T12:23:17;100120.84;;;6.81;68.44
15817;BME280;8009;50.070;8.232;2023-01-30T12:25:55;100116.97;;;6.55;68.68
15817;BME280;8009;50.070;8.232;2023-01-30T12:28:34;100105.97;;;6.76;68.29
15817;BME280;8009;50.070;8.232;2023-01-30T12:31:10;100116.63;;;6.77;68.38
15817;BME280;8009;50.070;8.232;2023-01-30T12:33:41;100120.41;;;6.89;68.04
15817;BME280;8009;50.070;8.232;2023-01-30T12:36:19;100106.16;;;6.73;68.70
15817;BME280;8009;50.070;8.232;2023-01-30T12:38:56;100114.97;;;6.75;68.52
15817;BME280;8009;50.070;8.232;2023-01-30T12:41:58;100108.84;;;6.73;69.02
15817;BME280;8009;50.070;8.232;2023-01-30T12:47:53;100112.03;;;6.64;69.86
15817;BME280;8009;50.070;8.232;2023-01-30T12:53:50;100127.72;;;7.01;68.79
15817;BME280;8009;50.070;8.232;2023-01-30T12:56:56;100121.38;;;7.18;68.86
15817;BME280;8009;50.070;8.232;2023-01-30T13:02:59;100126.97;;;6.99;67.27
15817;BME280;8009;50.070;8.232;2023-01-30T13:12:12;100137.84;;;7.12;68.09
15817;BME280;8009;50.070;8.232;2023-01-30T13:14:47;100118.50;;;7.21;65.89
15817;BME280;8009;50.070;8.232;2023-01-30T13:17:43;100131.25;;;7.18;67.19
15817;BME280;8009;50.070;8.232;2023-01-30T13:23:34;100143.22;;;7.12;67.93
15817;BME280;8009;50.070;8.232;2023-01-30T13:26:08;100137.38;;;6.90;68.44
15817;BME280;8009;50.070;8.232;2023-01-30T13:28:41;100141.09;;;7.17;67.83
15817;BME280;8009;50.070;8.232;2023-01-30T13:31:15;100147.97;;;6.77;69.09
15817;BME280;8009;50.070;8.232;2023-01-30T13:33:46;100149.84;;;6.91;68.22
15817;BME280;8009;50.070;8.232;2023-01-30T13:36:22;100151.84;;;6.71;69.21
15817;BME280;8009;50.070;8.232;2023-01-30T13:39:11;100166.50;;;6.66;70.32
15817;BME280;8009;50.070;8.232;2023-01-30T13:41:44;100161.13;;;6.66;70.62
15817;BME280;8009;50.070;8.232;2023-01-30T13:44:17;100161.81;;;6.85;71.08
15817;BME280;8009;50.070;8.232;2023-01-30T13:46:50;100162.75;;;6.84;71.33
15817;BME280;8009;50.070;8.232;2023-01-30T13:49:23;100156.25;;;6.88;70.38
15817;BME280;8009;50.070;8.232;2023-01-30T13:52:02;100149.97;;;6.57;70.60
15817;BME280;8009;50.070;8.232;2023-01-30T13:54:45;100166.75;;;6.77;69.94
15817;BME280;8009;50.070;8.232;2023-01-30T13:57:25;100159.81;;;6.73;69.28
15817;BME280;8009;50.070;8.232;2023-01-30T14:00:27;100170.91;;;6.51;70.41
15817;BME280;8009;50.070;8.232;2023-01-30T14:03:14;100168.31;;;6.81;69.69
15817;BME280;8009;50.070;8.232;2023-01-30T14:05:58;100171.75;;;6.51;68.98
15817;BME280;8009;50.070;8.232;2023-01-30T14:08:34;100192.25;;;6.21;69.93
15817;BME280;8009;50.070;8.232;2023-01-30T14:11:27;100200.09;;;6.08;71.77
15817;BME280;8009;50.070;8.232;2023-01-30T14:14:00;100204.03;;;6.18;72.88
15817;BME280;8009;50.070;8.232;2023-01-30T14:16:44;100201.63;;;6.45;72.65
15817;BME280;8009;50.070;8.232;2023-01-30T14:19:41;100197.41;;;6.57;72.25
15817;BME280;8009;50.070;8.232;2023-01-30T14:28:50;100225.97;;;6.25;74.31
15817;BME280;8009;50.070;8.232;2023-01-30T14:31:44;100218.13;;;5.87;75.64
15817;BME280;8009;50.070;8.232;2023-01-30T14:40:33;100242.59;;;5.63;74.59
15817;BME280;8009;50.070;8.232;2023-01-30T14:43:35;100249.97;;;5.41;75.09
15817;BME280;8009;50.070;8.232;2023-01-30T14:46:11;100248.50;;;5.70;74.45
15817;BME280;8009;50.070;8.232;2023-01-30T14:49:02;100257.91;;;5.96;73.69
15817;BME280;8009;50.070;8.232;2023-01-30T14:51:33;100259.13;;;5.89;72.21
15817;BME280;8009;50.070;8.232;2023-01-30T14:54:07;100265.59;;;5.68;72.81
15817;BME280;8009;50.070;8.232;2023-01-30T14:56:48;100281.59;;;5.86;71.76
15817;BME280;8009;50.070;8.232;2023-01-30T14:59:22;100276.78;;;5.76;71.79
15817;BME280;8009;50.070;8.232;2023-01-30T15:02:00;100289.94;;;5.63;72.76
15817;BME280;8009;50.070;8.232;2023-01-30T15:04:31;100276.31;;;5.85;71.97
15817;BME280;8009;50.070;8.232;2023-01-30T15:07:04;100289.16;;;5.78;72.56
15817;BME280;8009;50.070;8.232;2023-01-30T15:09:36;100283.81;;;5.61;72.47
15817;BME280;8009;50.070;8.232;2023-01-30T15:12:18;100298.03;;;5.98;71.81
15817;BME280;8009;50.070;8.232;2023-01-30T15:14:58;100280.19;;;6.47;70.38
15817;BME280;8009;50.070;8.232;2023-01-30T15:17:47;100285.53;;;6.31;70.01
15817;BME280;8009;50.070;8.232;2023-01-30T15:20:29;100277.72;;;6.27;70.16
15817;BME280;8009;50.070;8.232;2023-01-30T15:23:14;100281.56;;;6.39;68.42
15817;BME280;8009;50.070;8.232;2023-01-30T15:26:05;100301.00;;;5.92;68.89
15817;BME280;8009;50.070;8.232;2023-01-30T15:28:45;100301.63;;;6.14;70.10
15817;BME280;8009;50.070;8.232;2023-01-30T15:31:19;100301.63;;;6.31;67.58
15817;BME280;8009;50.070;8.232;2023-01-30T15:33:54;100306.88;;;6.00;69.84
15817;BME280;8009;50.070;8.232;2023-01-30T15:36:26;100299.75;;;6.16;68.02
15817;BME280;8009;50.070;8.232;2023-01-30T15:38:57;100317.09;;;6.09;69.07
15817;BME280;8009;50.070;8.232;2023-01-30T15:41:26;100317.63;;;5.81;68.86
15817;BME280;8009;50.070;8.232;2023-01-30T15:44:20;100325.75;;;6.14;67.54
15817;BME280;8009;50.070;8.232;2023-01-30T15:47:01;100329.16;;;6.18;67.72
15817;BME280;8009;50.070;8.232;2023-01-30T15:49:52;100328.22;;;6.19;68.88
15817;BME280;8009;50.070;8.232;2023-01-30T15:52:24;100324.59;;;6.20;68.61
15817;BME280;8009;50.070;8.232;2023-01-30T15:54:59;100330.66;;;6.23;68.36
15817;BME280;8009;50.070;8.232;2023-01-30T15:57:32;100342.41;;;6.21;68.95
15817;BME280;8009;50.070;8.232;2023-01-30T16:00:03;100333.88;;;5.95;69.12
15817;BME280;8009;50.070;8.232;2023-01-30T16:37:51;100422.91;;;5.83;69.49
15817;BME280;8009;50.070;8.232;2023-01-30T16:53:11;100441.63;;;5.84;68.05
15817;BME280;8009;50.070;8.232;2023-01-30T16:55:54;100436.53;;;5.78;68.02
15817;BME280;8009;50.070;8.232;2023-01-30T16:58:25;100440.56;;;5.87;67.73
15817;BME280;8009;50.070;8.232;2023-01-30T17:00:57;100440.19;;;5.96;67.24
15817;BME280;8009;50.070;8.232;2023-01-30T17:03:29;100448.47;;;6.09;66.43
15817;BME280;8009;50.070;8.232;2023-01-30T17:06:02;100450.28;;;6.08;66.38
15817;BME280;8009;50.070;8.232;2023-01-30T17:08:46;100455.44;;;5.75;67.58
15817;BME280;8009;50.070;8.232;2023-01-30T17:11:31;100458.56;;;6.04;66.48
15817;BME280;8009;50.070;8.232;2023-01-30T17:14:17;100460.91;;;6.10;67.73
15817;BME280;8009;50.070;8.232;2023-01-30T17:16:46;100457.97;;;5.97;67.04
15817;BME280;8009;50.070;8.232;2023-01-30T17:19:15;100466.84;;;5.61;68.21
15817;BME280;8009;50.070;8.232;2023-01-30T17:21:47;100471.47;;;5.96;67.07
15817;BME280;8009;50.070;8.232;2023-01-30T17:24:21;100472.19;;;5.80;67.86
15817;BME280;8009;50.070;8.232;2023-01-30T17:26:53;100473.13;;;5.98;67.63
15817;BME280;8009;50.070;8.232;2023-01-30T17:29:26;100475.78;;;5.98;68.47
15817;BME280;8009;50.070;8.232;2023-01-30T17:31:56;100486.47;;;6.17;67.22
15817;BME280;8009;50.070;8.232;2023-01-30T17:34:24;100487.09;;;6.41;67.70
15817;BME280;8009;50.070;8.232;2023-01-30T17:37:10;100500.91;;;6.68;66.72
15817;BME280;8009;50.070;8.232;2023-01-30T17:39:44;100499.06;;;6.86;68.91
15817;BME280;8009;50.070;8.232;2023-01-30T17:42:13;100507.03;;;7.21;67.48
15817;BME280;8009;50.070;8.232;2023-01-30T17:44:42;100516.72;;;7.07;67.11
15817;BME280;8009;50.070;8.232;2023-01-30T17:47:11;100521.50;;;7.51;67.16
15817;BME280;8009;50.070;8.232;2023-01-30T17:49:41;100522.22;;;7.55;66.52
15817;BME280;8009;50.070;8.232;2023-01-30T17:52:14;100543.47;;;7.26;63.84
15817;BME280;8009;50.070;8.232;2023-01-30T17:54:45;100538.22;;;6.73;64.91
15817;BME280;8009;50.070;8.232;2023-01-30T17:57:14;100546.03;;;6.77;64.15
15817;BME280;8009;50.070;8.232;2023-01-30T17:59:43;100550.81;;;6.36;65.43
15817;BME280;8009;50.070;8.232;2023-01-30T18:02:12;100560.13;;;6.46;66.22
15817;BME280;8009;50.070;8.232;2023-01-30T18:04:40;100570.75;;;6.30;65.89
15817;BME280;8009;50.070;8.232;2023-01-30T18:07:12;100569.84;;;6.13;67.03
15817;BME280;8009;50.070;8.232;2023-01-30T18:09:41;100571.56;;;6.14;67.04
15817;BME280;8009;50.070;8.232;2023-01-30T18:12:12;100584.03;;;6.33;66.73
15817;BME280;8009;50.070;8.232;2023-01-30T18:14:40;100576.72;;;6.18;67.21
15817;BME280;8009;50.070;8.232;2023-01-30T18:17:10;100582.47;;;6.10;67.08
15817;BME280;8009;50.070;8.232;2023-01-30T18:19:39;100592.34;;;6.27;66.38
15817;BME280;8009;50.070;8.232;2023-01-30T18:22:07;100583.94;;;6.35;66.46
15817;BME280;8009;50.070;8.232;2023-01-30T18:24:35;100582.25;;;5.96;67.14
15817;BME280;8009;50.070;8.232;2023-01-30T18:27:04;100599.59;;;6.06;66.69
15817;BME280;8009;50.070;8.232;2023-01-30T18:29:35;100598.00;;;6.21;66.67
15817;BME280;8009;50.070;8.232;2023-01-30T18:32:04;100599.31;;;6.31;66.66
15817;BME280;8009;50.070;8.232;2023-01-30T18:34:32;100610.47;;;6.41;66.34
15817;BME280;8009;50.070;8.232;2023-01-30T18:37:01;100613.34;;;6.37;66.12
15817;BME280;8009;50.070;8.232;2023-01-30T18:39:30;100613.34;;;6.37;66.12
15817;BME280;8009;50.070;8.232;2023-01-30T18:41:59;100609.47;;;6.25;66.61
15817;BME280;8009;50.070;8.232;2023-01-30T18:44:28;100606.72;;;6.07;66.30
15817;BME280;8009;50.070;8.232;2023-01-30T18:47:03;100611.91;;;6.29;66.10
15817;BME280;8009;50.070;8.232;2023-01-30T18:49:31;100606.13;;;6.20;66.86
15817;BME280;8009;50.070;8.232;2023-01-30T18:52:00;100612.28;;;6.22;66.35
15817;BME280;8009;50.070;8.232;2023-01-30T18:54:30;100608.53;;;6.07;67.11
15817;BME280;8009;50.070;8.232;2023-01-30T18:56:58;100599.88;;;6.38;65.54
15817;BME280;8009;50.070;8.232;2023-01-30T18:59:26;100605.97;;;6.42;65.44
15817;BME280;8009;50.070;8.232;2023-01-30T19:01:55;100609.16;;;6.50;65.90
15817;BME280;8009;50.070;8.232;2023-01-30T19:04:26;100612.13;;;6.44;64.99
15817;BME280;8009;50.070;8.232;2023-01-30T19:06:54;100619.59;;;6.37;65.48
15817;BME280;8009;50.070;8.232;2023-01-30T19:09:23;100620.53;;;6.36;65.92
15817;BME280;8009;50.070;8.232;2023-01-30T19:11:52;100622.81;;;6.26;66.50
15817;BME280;8009;50.070;8.232;2023-01-30T19:14:32;100629.09;;;6.25;65.11
15817;BME280;8009;50.070;8.232;2023-01-30T19:17:01;100623.00;;;6.22;66.32
15817;BME280;8009;50.070;8.232;2023-01-30T19:19:32;100622.13;;;6.21;66.24
15817;BME280;8009;50.070;8.232;2023-01-30T19:22:05;100644.31;;;6.06;66.21
15817;BME280;8009;50.070;8.232;2023-01-30T19:24:33;100641.94;;;6.19;65.75
15817;BME280;8009;50.070;8.232;2023-01-30T19:27:02;100644.41;;;6.04;66.71
15817;BME280;8009;50.070;8.232;2023-01-30T19:29:32;100648.59;;;6.29;65.90
15817;BME280;8009;50.070;8.232;2023-01-30T19:32:00;100656.63;;;6.29;66.06
15817;BME280;8009;50.070;8.232;2023-01-30T19:34:29;100664.78;;;6.27;66.47
15817;BME280;8009;50.070;8.232;2023-01-30T19:36:59;100664.53;;;6.13;66.57
15817;BME280;8009;50.070;8.232;2023-01-30T19:39:28;100668.22;;;6.29;66.07
15817;BME280;8009;50.070;8.232;2023-01-30T19:41:56;100670.13;;;6.27;65.14
15817;BME280;8009;50.070;8.232;2023-01-30T19:44:26;100664.91;;;6.43;66.01
15817;BME280;8009;50.070;8.232;2023-01-30T19:46:54;100677.44;;;6.43;65.09
15817;BME280;8009;50.070;8.232;2023-01-30T19:49:23;100682.81;;;6.43;65.16
15817;BME280;8009;50.070;8.232;2023-01-30T19:51:53;100684.03;;;6.54;65.33
15817;BME280;8009;50.070;8.232;2023-01-30T19:54:29;100686.44;;;6.61;65.11
15817;BME280;8009;50.070;8.232;2023-01-30T19:56:59;100690.78;;;6.63;65.63
15817;BME280;8009;50.070;8.232;2023-01-30T20:08:45;100695.78;;;6.52;64.78
15817;BME280;8009;50.070;8.232;2023-01-30T20:11:17;100696.28;;;6.60;65.22
15817;BME280;8009;50.070;8.232;2023-01-30T20:13:46;100694.13;;;6.30;65.99
15817;BME280;8009;50.070;8.232;2023-01-30T20:16:18;100704.06;;;6.47;66.01
15817;BME280;8009;50.070;8.232;2023-01-30T20:19:10;100709.72;;;6.41;66.29
15817;BME280;8009;50.070;8.232;2023-01-30T20:21:39;100711.31;;;6.26;66.13
15817;BME280;8009;50.070;8.232;2023-01-30T20:24:09;100710.16;;;6.32;65.29
15817;BME280;8009;50.070;8.232;2023-01-30T20:26:41;100721.00;;;6.48;64.78
15817;BME280;8009;50.070;8.232;2023-01-30T20:29:12;100713.69;;;6.32;65.99
15817;BME280;8009;50.070;8.232;2023-01-30T20:31:41;100714.88;;;6.27;65.38